sensor_id;sensor_type;location;lat;lon;timestamp;temperature;humidity
35678;DHT22;21791;42.828;74.582;2023-02-26T00:02:26;-3.50;99.90
35678;DHT22;21791;42.828;74.582;2023-02-26T00:04:52;-3.50;99.90
35678;DHT22;21791;42.828;74.582;2023-02-26T00:07:19;-3.10;99.90
35678;DHT22;21791;42.828;74.582;2023-02-26T00:09:45;-3.50;99.90
35678;DHT22;21791;42.828;74.582;2023-02-26T00:12:12;-3.40;99.90
35678;DHT22;21791;42.828;74.582;2023-02-26T00:14:39;-3.40;99.90
35678;DHT22;21791;42.828;74.582;2023-02-26T00:17:07;-3.20;99.90
35678;DHT22;21791;42.828;74.582;2023-02-26T00:19:35;-3.10;99.90
35678;DHT22;21791;42.828;74.582;2023-02-26T00:22:01;-3.40;99.90
35678;DHT22;21791;42.828;74.582;2023-02-26T00:24:28;-3.30;99.90
35678;DHT22;21791;42.828;74.582;2023-02-26T00:26:54;-3.20;99.90
35678;DHT22;21791;42.828;74.582;2023-02-26T00:29:21;-3.10;99.90
35678;DHT22;21791;42.828;74.582;2023-02-26T00:31:48;-3.30;99.90
35678;DHT22;21791;42.828;74.582;2023-02-26T00:34:15;-3.20;99.90
35678;DHT22;21791;42.828;74.582;2023-02-26T00:36:56;-3.30;99.90
35678;DHT22;21791;42.828;74.582;2023-02-26T00:42:07;-3.40;99.90
35678;DHT22;21791;42.828;74.582;2023-02-26T00:44:34;-3.40;99.90
35678;DHT22;21791;42.828;74.582;2023-02-26T00:47:24;-3.40;99.90
35678;DHT22;21791;42.828;74.582;2023-02-26T00:50:13;-3.40;99.90
35678;DHT22;21791;42.828;74.582;2023-02-26T00:52:43;-3.50;99.90
35678;DHT22;21791;42.828;74.582;2023-02-26T00:55:11;-3.50;99.90
35678;DHT22;21791;42.828;74.582;2023-02-26T00:57:38;-3.40;99.90
35678;DHT22;21791;42.828;74.582;2023-02-26T01:00:05;-3.40;99.90
35678;DHT22;21791;42.828;74.582;2023-02-26T01:02:36;-3.50;99.90
35678;DHT22;21791;42.828;74.582;2023-02-26T01:05:04;-3.60;99.90
35678;DHT22;21791;42.828;74.582;2023-02-26T01:07:43;-3.60;99.90
35678;DHT22;21791;42.828;74.582;2023-02-26T01:10:13;-3.70;99.90
35678;DHT22;21791;42.828;74.582;2023-02-26T01:12:40;-3.60;99.90
35678;DHT22;21791;42.828;74.582;2023-02-26T01:15:08;-3.60;99.90
35678;DHT22;21791;42.828;74.582;2023-02-26T01:20:20;-3.60;99.90
35678;DHT22;21791;42.828;74.582;2023-02-26T01:25:20;-3.70;99.90
35678;DHT22;21791;42.828;74.582;2023-02-26T01:27:48;-3.60;99.90
35678;DHT22;21791;42.828;74.582;2023-02-26T01:30:15;-3.60;99.90
35678;DHT22;21791;42.828;74.582;2023-02-26T01:32:48;-3.70;99.90
35678;DHT22;21791;42.828;74.582;2023-02-26T01:38:48;-3.80;99.90
35678;DHT22;21791;42.828;74.582;2023-02-26T01:41:26;-3.70;99.90
35678;DHT22;21791;42.828;74.582;2023-02-26T01:44:03;-3.70;99.90
35678;DHT22;21791;42.828;74.582;2023-02-26T01:46:56;-3.80;99.90
35678;DHT22;21791;42.828;74.582;2023-02-26T01:49:28;-3.70;99.90
35678;DHT22;21791;42.828;74.582;2023-02-26T01:54:35;-3.80;99.90
35678;DHT22;21791;42.828;74.582;2023-02-26T01:57:07;-3.80;99.90
35678;DHT22;21791;42.828;74.582;2023-02-26T01:59:38;-3.60;99.90
35678;DHT22;21791;42.828;74.582;2023-02-26T02:02:07;-3.70;99.90
35678;DHT22;21791;42.828;74.582;2023-02-26T02:04:39;-3.60;99.90
35678;DHT22;21791;42.828;74.582;2023-02-26T02:07:07;-3.70;99.90
35678;DHT22;21791;42.828;74.582;2023-02-26T02:09:34;-3.70;99.90
35678;DHT22;21791;42.828;74.582;2023-02-26T02:12:55;-3.60;99.90
35678;DHT22;21791;42.828;74.582;2023-02-26T02:15:04;-3.70;99.90
35678;DHT22;21791;42.828;74.582;2023-02-26T02:17:55;-3.50;99.90
35678;DHT22;21791;42.828;74.582;2023-02-26T02:23:44;-3.40;99.90
35678;DHT22;21791;42.828;74.582;2023-02-26T02:31:24;-3.30;99.90
35678;DHT22;21791;42.828;74.582;2023-02-26T02:34:03;-3.40;99.90
35678;DHT22;21791;42.828;74.582;2023-02-26T02:39:14;-3.20;99.90
35678;DHT22;21791;42.828;74.582;2023-02-26T02:41:46;-3.20;99.90
35678;DHT22;21791;42.828;74.582;2023-02-26T02:44:17;-3.20;99.90
35678;DHT22;21791;42.828;74.582;2023-02-26T02:46:46;-3.00;99.90
35678;DHT22;21791;42.828;74.582;2023-02-26T02:51:57;-3.10;99.90
35678;DHT22;21791;42.828;74.582;2023-02-26T02:55:23;-3.00;99.90
35678;DHT22;21791;42.828;74.582;2023-02-26T02:57:32;-3.00;99.90
35678;DHT22;21791;42.828;74.582;2023-02-26T03:00:06;-3.00;99.90
35678;DHT22;21791;42.828;74.582;2023-02-26T03:02:59;-2.90;99.90
35678;DHT22;21791;42.828;74.582;2023-02-26T03:05:27;-3.20;99.90
35678;DHT22;21791;42.828;74.582;2023-02-26T03:07:59;-3.30;99.90
35678;DHT22;21791;42.828;74.582;2023-02-26T03:10:26;-3.00;99.90
35678;DHT22;21791;42.828;74.582;2023-02-26T03:12:53;-3.10;99.90
35678;DHT22;21791;42.828;74.582;2023-02-26T03:15:32;-3.20;99.90
35678;DHT22;21791;42.828;74.582;2023-02-26T03:18:30;-3.30;99.90
35678;DHT22;21791;42.828;74.582;2023-02-26T03:38:02;-2.00;99.90
35678;DHT22;21791;42.828;74.582;2023-02-26T03:43:27;-2.10;99.90
35678;DHT22;21791;42.828;74.582;2023-02-26T03:45:58;-1.70;99.90
35678;DHT22;21791;42.828;74.582;2023-02-26T03:48:28;-1.70;99.90
35678;DHT22;21791;42.828;74.582;2023-02-26T03:51:00;-1.60;99.90
35678;DHT22;21791;42.828;74.582;2023-02-26T03:53:36;-1.30;99.90
35678;DHT22;21791;42.828;74.582;2023-02-26T03:56:27;-1.50;99.90
35678;DHT22;21791;42.828;74.582;2023-02-26T03:58:55;-1.60;99.90
35678;DHT22;21791;42.828;74.582;2023-02-26T04:01:25;-1.10;99.90
35678;DHT22;21791;42.828;74.582;2023-02-26T04:03:58;-1.20;99.90
35678;DHT22;21791;42.828;74.582;2023-02-26T04:06:25;-1.20;99.90
35678;DHT22;21791;42.828;74.582;2023-02-26T04:08:52;-1.30;99.90
35678;DHT22;21791;42.828;74.582;2023-02-26T04:11:21;-1.80;99.90
35678;DHT22;21791;42.828;74.582;2023-02-26T04:13:48;-1.60;99.90
35678;DHT22;21791;42.828;74.582;2023-02-26T04:16:16;-1.10;99.90
35678;DHT22;21791;42.828;74.582;2023-02-26T04:18:43;-1.30;99.90
35678;DHT22;21791;42.828;74.582;2023-02-26T04:21:14;-1.20;99.90
35678;DHT22;21791;42.828;74.582;2023-02-26T04:23:42;-1.10;99.90
35678;DHT22;21791;42.828;74.582;2023-02-26T04:26:08;-0.70;99.90
35678;DHT22;21791;42.828;74.582;2023-02-26T04:28:35;-1.20;99.90
35678;DHT22;21791;42.828;74.582;2023-02-26T04:31:04;-0.90;99.90
35678;DHT22;21791;42.828;74.582;2023-02-26T04:33:31;-0.80;99.90
35678;DHT22;21791;42.828;74.582;2023-02-26T04:35:59;-0.80;99.90
35678;DHT22;21791;42.828;74.582;2023-02-26T04:38:26;-1.00;99.90
35678;DHT22;21791;42.828;74.582;2023-02-26T04:40:52;-0.50;99.90
35678;DHT22;21791;42.828;74.582;2023-02-26T04:43:19;-0.40;99.90
35678;DHT22;21791;42.828;74.582;2023-02-26T04:45:46;0.10;99.90
35678;DHT22;21791;42.828;74.582;2023-02-26T04:48:14;-0.10;99.90
35678;DHT22;21791;42.828;74.582;2023-02-26T04:50:40;-0.50;99.90
35678;DHT22;21791;42.828;74.582;2023-02-26T04:53:07;-0.20;99.90
35678;DHT22;21791;42.828;74.582;2023-02-26T04:55:35;-0.40;99.90
35678;DHT22;21791;42.828;74.582;2023-02-26T04:58:01;-0.10;99.90
35678;DHT22;21791;42.828;74.582;2023-02-26T05:00:28;0.20;99.90
35678;DHT22;21791;42.828;74.582;2023-02-26T05:02:54;0.70;99.90
35678;DHT22;21791;42.828;74.582;2023-02-26T05:05:21;0.40;99.90
35678;DHT22;21791;42.828;74.582;2023-02-26T05:07:48;-0.10;99.90
35678;DHT22;21791;42.828;74.582;2023-02-26T05:10:14;-0.30;99.90
35678;DHT22;21791;42.828;74.582;2023-02-26T05:12:41;0.10;99.90
35678;DHT22;21791;42.828;74.582;2023-02-26T05:15:10;0.50;99.90
35678;DHT22;21791;42.828;74.582;2023-02-26T05:17:36;1.10;99.90
35678;DHT22;21791;42.828;74.582;2023-02-26T05:20:03;-0.40;99.90
35678;DHT22;21791;42.828;74.582;2023-02-26T05:22:30;-1.10;99.90
35678;DHT22;21791;42.828;74.582;2023-02-26T05:24:57;-1.20;99.90
35678;DHT22;21791;42.828;74.582;2023-02-26T05:27:23;-0.80;99.90
35678;DHT22;21791;42.828;74.582;2023-02-26T05:29:50;0.50;99.90
35678;DHT22;21791;42.828;74.582;2023-02-26T05:32:16;0.50;99.90
35678;DHT22;21791;42.828;74.582;2023-02-26T05:34:43;0.00;99.90
35678;DHT22;21791;42.828;74.582;2023-02-26T05:37:09;0.80;99.90
35678;DHT22;21791;42.828;74.582;2023-02-26T05:39:36;1.20;99.90
35678;DHT22;21791;42.828;74.582;2023-02-26T05:42:02;1.20;99.90
35678;DHT22;21791;42.828;74.582;2023-02-26T05:44:29;2.60;99.90
35678;DHT22;21791;42.828;74.582;2023-02-26T05:46:56;3.60;99.90
35678;DHT22;21791;42.828;74.582;2023-02-26T05:49:22;4.20;99.90
35678;DHT22;21791;42.828;74.582;2023-02-26T05:51:49;3.90;99.90
35678;DHT22;21791;42.828;74.582;2023-02-26T05:54:15;2.50;99.90
35678;DHT22;21791;42.828;74.582;2023-02-26T05:56:42;3.30;99.90
35678;DHT22;21791;42.828;74.582;2023-02-26T05:59:14;2.80;99.90
35678;DHT22;21791;42.828;74.582;2023-02-26T06:01:42;3.00;99.90
35678;DHT22;21791;42.828;74.582;2023-02-26T06:04:09;1.40;99.90
35678;DHT22;21791;42.828;74.582;2023-02-26T06:06:35;1.00;99.90
35678;DHT22;21791;42.828;74.582;2023-02-26T06:09:02;2.20;99.90
35678;DHT22;21791;42.828;74.582;2023-02-26T06:11:29;3.20;99.90
35678;DHT22;21791;42.828;74.582;2023-02-26T06:13:56;4.50;99.90
35678;DHT22;21791;42.828;74.582;2023-02-26T06:16:23;5.20;99.90
35678;DHT22;21791;42.828;74.582;2023-02-26T06:18:49;5.80;99.90
35678;DHT22;21791;42.828;74.582;2023-02-26T06:21:16;4.10;99.90
35678;DHT22;21791;42.828;74.582;2023-02-26T06:23:43;3.70;99.90
35678;DHT22;21791;42.828;74.582;2023-02-26T06:26:10;4.90;99.90
35678;DHT22;21791;42.828;74.582;2023-02-26T06:28:37;5.60;99.90
35678;DHT22;21791;42.828;74.582;2023-02-26T06:31:04;5.30;99.90
35678;DHT22;21791;42.828;74.582;2023-02-26T06:33:30;5.00;99.90
35678;DHT22;21791;42.828;74.582;2023-02-26T06:35:57;5.60;99.90
35678;DHT22;21791;42.828;74.582;2023-02-26T06:38:27;5.60;99.90
35678;DHT22;21791;42.828;74.582;2023-02-26T06:40:54;4.10;99.90
35678;DHT22;21791;42.828;74.582;2023-02-26T06:43:21;3.50;99.90
35678;DHT22;21791;42.828;74.582;2023-02-26T06:45:47;3.80;99.90
35678;DHT22;21791;42.828;74.582;2023-02-26T06:48:17;3.60;99.90
35678;DHT22;21791;42.828;74.582;2023-02-26T06:50:44;2.80;99.90
35678;DHT22;21791;42.828;74.582;2023-02-26T06:53:10;2.40;99.90
35678;DHT22;21791;42.828;74.582;2023-02-26T06:55:44;1.70;99.90
35678;DHT22;21791;42.828;74.582;2023-02-26T06:58:11;1.40;99.90
35678;DHT22;21791;42.828;74.582;2023-02-26T07:00:38;1.20;99.90
35678;DHT22;21791;42.828;74.582;2023-02-26T07:03:09;1.30;99.90
35678;DHT22;21791;42.828;74.582;2023-02-26T07:05:37;0.60;99.90
35678;DHT22;21791;42.828;74.582;2023-02-26T07:08:04;0.40;99.90
35678;DHT22;21791;42.828;74.582;2023-02-26T07:10:34;0.20;99.90
35678;DHT22;21791;42.828;74.582;2023-02-26T07:13:01;0.70;99.90
35678;DHT22;21791;42.828;74.582;2023-02-26T07:15:28;1.60;99.90
35678;DHT22;21791;42.828;74.582;2023-02-26T07:17:54;2.60;99.90
35678;DHT22;21791;42.828;74.582;2023-02-26T07:20:21;3.90;99.90
35678;DHT22;21791;42.828;74.582;2023-02-26T07:23:06;4.50;99.90
35678;DHT22;21791;42.828;74.582;2023-02-26T07:25:32;4.50;99.90
35678;DHT22;21791;42.828;74.582;2023-02-26T07:27:58;4.90;99.90
35678;DHT22;21791;42.828;74.582;2023-02-26T07:30:26;4.60;99.90
35678;DHT22;21791;42.828;74.582;2023-02-26T07:32:52;3.50;99.90
35678;DHT22;21791;42.828;74.582;2023-02-26T07:35:19;2.90;99.90
35678;DHT22;21791;42.828;74.582;2023-02-26T07:37:46;1.80;99.90
35678;DHT22;21791;42.828;74.582;2023-02-26T07:40:13;0.90;99.90
35678;DHT22;21791;42.828;74.582;2023-02-26T07:42:39;0.60;99.90
35678;DHT22;21791;42.828;74.582;2023-02-26T07:45:06;0.50;99.90
35678;DHT22;21791;42.828;74.582;2023-02-26T07:47:33;0.50;99.90
35678;DHT22;21791;42.828;74.582;2023-02-26T07:50:00;0.70;99.90
35678;DHT22;21791;42.828;74.582;2023-02-26T07:52:27;0.90;99.90
35678;DHT22;21791;42.828;74.582;2023-02-26T07:54:54;1.80;99.90
35678;DHT22;21791;42.828;74.582;2023-02-26T07:57:20;2.00;99.90
35678;DHT22;21791;42.828;74.582;2023-02-26T07:59:47;3.30;99.90
35678;DHT22;21791;42.828;74.582;2023-02-26T08:02:14;3.50;99.90
35678;DHT22;21791;42.828;74.582;2023-02-26T08:04:42;4.40;99.90
35678;DHT22;21791;42.828;74.582;2023-02-26T08:07:08;4.80;99.90
35678;DHT22;21791;42.828;74.582;2023-02-26T08:09:35;5.00;99.90
35678;DHT22;21791;42.828;74.582;2023-02-26T08:12:01;4.80;99.90
35678;DHT22;21791;42.828;74.582;2023-02-26T08:14:28;4.30;99.90
35678;DHT22;21791;42.828;74.582;2023-02-26T08:16:54;4.60;99.90
35678;DHT22;21791;42.828;74.582;2023-02-26T08:19:21;4.60;99.90
35678;DHT22;21791;42.828;74.582;2023-02-26T08:21:47;3.70;99.90
35678;DHT22;21791;42.828;74.582;2023-02-26T08:24:14;3.20;99.90
35678;DHT22;21791;42.828;74.582;2023-02-26T08:26:40;3.30;99.90
35678;DHT22;21791;42.828;74.582;2023-02-26T08:29:07;3.00;99.90
35678;DHT22;21791;42.828;74.582;2023-02-26T08:31:33;3.40;99.90
35678;DHT22;21791;42.828;74.582;2023-02-26T08:34:00;4.40;99.90
35678;DHT22;21791;42.828;74.582;2023-02-26T08:36:27;4.50;99.90
35678;DHT22;21791;42.828;74.582;2023-02-26T08:38:54;4.10;99.90
35678;DHT22;21791;42.828;74.582;2023-02-26T08:41:20;3.60;99.90
35678;DHT22;21791;42.828;74.582;2023-02-26T08:43:48;3.60;99.90
35678;DHT22;21791;42.828;74.582;2023-02-26T08:46:14;3.30;99.90
35678;DHT22;21791;42.828;74.582;2023-02-26T08:48:41;3.70;99.90
35678;DHT22;21791;42.828;74.582;2023-02-26T08:51:07;4.50;99.90
35678;DHT22;21791;42.828;74.582;2023-02-26T08:53:34;4.10;99.90
35678;DHT22;21791;42.828;74.582;2023-02-26T08:56:00;3.40;99.90
35678;DHT22;21791;42.828;74.582;2023-02-26T08:58:27;3.30;99.90
35678;DHT22;21791;42.828;74.582;2023-02-26T09:00:54;3.40;99.90
35678;DHT22;21791;42.828;74.582;2023-02-26T09:03:20;3.80;99.90
35678;DHT22;21791;42.828;74.582;2023-02-26T09:05:47;4.10;99.90
35678;DHT22;21791;42.828;74.582;2023-02-26T09:08:13;4.00;99.90
35678;DHT22;21791;42.828;74.582;2023-02-26T09:10:41;4.10;99.90
35678;DHT22;21791;42.828;74.582;2023-02-26T09:13:08;4.50;99.90
35678;DHT22;21791;42.828;74.582;2023-02-26T09:15:34;4.50;99.90
35678;DHT22;21791;42.828;74.582;2023-02-26T09:18:01;4.50;99.90
35678;DHT22;21791;42.828;74.582;2023-02-26T09:20:28;4.70;99.90
35678;DHT22;21791;42.828;74.582;2023-02-26T09:22:55;4.40;99.90
35678;DHT22;21791;42.828;74.582;2023-02-26T09:25:22;4.60;99.90
35678;DHT22;21791;42.828;74.582;2023-02-26T09:27:49;4.00;99.90
35678;DHT22;21791;42.828;74.582;2023-02-26T09:30:16;4.10;99.90
35678;DHT22;21791;42.828;74.582;2023-02-26T09:32:43;3.90;99.90
35678;DHT22;21791;42.828;74.582;2023-02-26T09:35:09;4.30;99.90
35678;DHT22;21791;42.828;74.582;2023-02-26T09:37:36;4.90;99.90
35678;DHT22;21791;42.828;74.582;2023-02-26T09:40:03;5.50;99.90
35678;DHT22;21791;42.828;74.582;2023-02-26T09:45:46;4.20;99.90
35678;DHT22;21791;42.828;74.582;2023-02-26T09:48:15;3.90;99.90
35678;DHT22;21791;42.828;74.582;2023-02-26T09:50:49;4.30;99.90
35678;DHT22;21791;42.828;74.582;2023-02-26T09:53:23;3.80;99.90
35678;DHT22;21791;42.828;74.582;2023-02-26T09:55:54;3.80;99.90
35678;DHT22;21791;42.828;74.582;2023-02-26T09:58:33;4.00;99.90
35678;DHT22;21791;42.828;74.582;2023-02-26T10:01:26;3.70;99.90
35678;DHT22;21791;42.828;74.582;2023-02-26T10:09:19;3.30;99.90
35678;DHT22;21791;42.828;74.582;2023-02-26T10:18:00;3.80;99.90
35678;DHT22;21791;42.828;74.582;2023-02-26T10:20:32;3.70;99.90
35678;DHT22;21791;42.828;74.582;2023-02-26T10:25:48;3.70;99.90
35678;DHT22;21791;42.828;74.582;2023-02-26T10:28:55;3.80;99.90
35678;DHT22;21791;42.828;74.582;2023-02-26T10:31:36;3.90;99.90
35678;DHT22;21791;42.828;74.582;2023-02-26T10:34:51;4.40;99.90
35678;DHT22;21791;42.828;74.582;2023-02-26T10:42:59;4.00;99.90
35678;DHT22;21791;42.828;74.582;2023-02-26T10:50:54;3.90;99.90
35678;DHT22;21791;42.828;74.582;2023-02-26T10:53:22;3.70;99.90
35678;DHT22;21791;42.828;74.582;2023-02-26T10:56:01;3.20;99.90
35678;DHT22;21791;42.828;74.582;2023-02-26T10:58:28;3.10;99.90
35678;DHT22;21791;42.828;74.582;2023-02-26T11:00:55;3.10;99.90
35678;DHT22;21791;42.828;74.582;2023-02-26T11:03:37;3.10;99.90
35678;DHT22;21791;42.828;74.582;2023-02-26T11:06:05;3.00;99.90
35678;DHT22;21791;42.828;74.582;2023-02-26T11:08:53;3.00;99.90
35678;DHT22;21791;42.828;74.582;2023-02-26T11:11:46;2.80;99.90
35678;DHT22;21791;42.828;74.582;2023-02-26T11:14:14;2.50;99.90
35678;DHT22;21791;42.828;74.582;2023-02-26T11:16:49;2.40;99.90
35678;DHT22;21791;42.828;74.582;2023-02-26T11:19:16;2.30;99.90
35678;DHT22;21791;42.828;74.582;2023-02-26T11:21:46;2.20;99.90
35678;DHT22;21791;42.828;74.582;2023-02-26T11:24:47;2.00;99.90
35678;DHT22;21791;42.828;74.582;2023-02-26T11:27:20;1.80;99.90
35678;DHT22;21791;42.828;74.582;2023-02-26T11:29:58;1.70;99.90
35678;DHT22;21791;42.828;74.582;2023-02-26T11:32:32;1.70;99.90
35678;DHT22;21791;42.828;74.582;2023-02-26T11:34:59;1.60;99.90
35678;DHT22;21791;42.828;74.582;2023-02-26T11:37:33;1.50;99.90
35678;DHT22;21791;42.828;74.582;2023-02-26T11:40:13;1.40;99.90
35678;DHT22;21791;42.828;74.582;2023-02-26T11:42:52;1.40;99.90
35678;DHT22;21791;42.828;74.582;2023-02-26T11:45:19;1.30;99.90
35678;DHT22;21791;42.828;74.582;2023-02-26T11:47:48;1.30;99.90
35678;DHT22;21791;42.828;74.582;2023-02-26T11:50:20;1.30;99.90
35678;DHT22;21791;42.828;74.582;2023-02-26T11:53:04;1.20;99.90
35678;DHT22;21791;42.828;74.582;2023-02-26T11:55:36;1.20;99.90
35678;DHT22;21791;42.828;74.582;2023-02-26T11:58:21;1.20;99.90
35678;DHT22;21791;42.828;74.582;2023-02-26T12:00:50;1.10;99.90
35678;DHT22;21791;42.828;74.582;2023-02-26T12:03:20;1.10;99.90
35678;DHT22;21791;42.828;74.582;2023-02-26T12:05:47;1.10;99.90
35678;DHT22;21791;42.828;74.582;2023-02-26T12:08:35;1.10;99.90
35678;DHT22;21791;42.828;74.582;2023-02-26T12:11:39;0.80;99.90
35678;DHT22;21791;42.828;74.582;2023-02-26T12:22:58;0.70;99.90
35678;DHT22;21791;42.828;74.582;2023-02-26T12:26:02;0.70;99.90
35678;DHT22;21791;42.828;74.582;2023-02-26T12:32:05;0.40;99.90
35678;DHT22;21791;42.828;74.582;2023-02-26T12:35:01;0.30;99.90
35678;DHT22;21791;42.828;74.582;2023-02-26T12:45:53;0.20;99.90
35678;DHT22;21791;42.828;74.582;2023-02-26T13:08:08;0.30;99.90
35678;DHT22;21791;42.828;74.582;2023-02-26T13:13:55;0.30;99.90
35678;DHT22;21791;42.828;74.582;2023-02-26T13:21:58;0.20;99.90
35678;DHT22;21791;42.828;74.582;2023-02-26T13:24:52;0.20;99.90
35678;DHT22;21791;42.828;74.582;2023-02-26T13:27:21;0.40;99.90
35678;DHT22;21791;42.828;74.582;2023-02-26T13:30:09;0.30;99.90
35678;DHT22;21791;42.828;74.582;2023-02-26T13:32:40;0.30;99.90
35678;DHT22;21791;42.828;74.582;2023-02-26T13:35:36;0.30;99.90
35678;DHT22;21791;42.828;74.582;2023-02-26T13:41:15;0.00;99.90
35678;DHT22;21791;42.828;74.582;2023-02-26T13:44:25;-0.10;99.90
35678;DHT22;21791;42.828;74.582;2023-02-26T13:46:45;0.00;99.90
35678;DHT22;21791;42.828;74.582;2023-02-26T13:51:56;0.00;99.90
35678;DHT22;21791;42.828;74.582;2023-02-26T13:54:49;-0.10;99.90
35678;DHT22;21791;42.828;74.582;2023-02-26T14:03:33;-0.30;99.90
35678;DHT22;21791;42.828;74.582;2023-02-26T14:06:23;-0.50;99.90
35678;DHT22;21791;42.828;74.582;2023-02-26T14:08:54;-0.60;99.90
35678;DHT22;21791;42.828;74.582;2023-02-26T14:14:35;-0.50;99.90
35678;DHT22;21791;42.828;74.582;2023-02-26T14:19:44;-0.70;99.90
35678;DHT22;21791;42.828;74.582;2023-02-26T14:22:35;-0.80;99.90
35678;DHT22;21791;42.828;74.582;2023-02-26T14:25:17;-0.80;99.90
35678;DHT22;21791;42.828;74.582;2023-02-26T14:27:46;-1.00;99.90
35678;DHT22;21791;42.828;74.582;2023-02-26T14:33:08;-1.20;99.90
35678;DHT22;21791;42.828;74.582;2023-02-26T14:35:50;-1.30;99.90
35678;DHT22;21791;42.828;74.582;2023-02-26T14:38:27;-1.40;99.90
35678;DHT22;21791;42.828;74.582;2023-02-26T14:41:11;-1.40;99.90
35678;DHT22;21791;42.828;74.582;2023-02-26T14:43:49;-1.40;99.90
35678;DHT22;21791;42.828;74.582;2023-02-26T14:46:19;-1.40;99.90
35678;DHT22;21791;42.828;74.582;2023-02-26T14:48:46;-1.30;99.90
35678;DHT22;21791;42.828;74.582;2023-02-26T14:51:50;-1.30;99.90
35678;DHT22;21791;42.828;74.582;2023-02-26T14:57:27;-1.30;99.90
35678;DHT22;21791;42.828;74.582;2023-02-26T15:00:19;-1.30;99.90
35678;DHT22;21791;42.828;74.582;2023-02-26T15:03:40;-1.40;99.90
35678;DHT22;21791;42.828;74.582;2023-02-26T15:09:16;-1.30;99.90
35678;DHT22;21791;42.828;74.582;2023-02-26T15:14:33;-1.40;99.90
35678;DHT22;21791;42.828;74.582;2023-02-26T15:25:27;-1.50;99.90
35678;DHT22;21791;42.828;74.582;2023-02-26T15:27:54;-1.40;99.90
35678;DHT22;21791;42.828;74.582;2023-02-26T15:30:22;-1.30;99.90
35678;DHT22;21791;42.828;74.582;2023-02-26T15:32:56;-1.20;99.90
35678;DHT22;21791;42.828;74.582;2023-02-26T15:35:23;-1.20;99.90
35678;DHT22;21791;42.828;74.582;2023-02-26T15:37:54;-1.20;99.90
35678;DHT22;21791;42.828;74.582;2023-02-26T15:40:24;-1.20;99.90
35678;DHT22;21791;42.828;74.582;2023-02-26T15:42:53;-1.40;99.90
35678;DHT22;21791;42.828;74.582;2023-02-26T15:45:30;-1.30;99.90
35678;DHT22;21791;42.828;74.582;2023-02-26T15:47:59;-1.40;99.90
35678;DHT22;21791;42.828;74.582;2023-02-26T15:50:30;-1.30;99.90
35678;DHT22;21791;42.828;74.582;2023-02-26T15:53:00;-1.60;99.90
35678;DHT22;21791;42.828;74.582;2023-02-26T15:55:32;-1.50;99.90
35678;DHT22;21791;42.828;74.582;2023-02-26T15:58:00;-1.30;99.90
35678;DHT22;21791;42.828;74.582;2023-02-26T16:00:26;-1.30;99.90
35678;DHT22;21791;42.828;74.582;2023-02-26T16:02:57;-1.60;99.90
35678;DHT22;21791;42.828;74.582;2023-02-26T16:05:27;-1.50;99.90
35678;DHT22;21791;42.828;74.582;2023-02-26T16:07:55;-1.30;99.90
35678;DHT22;21791;42.828;74.582;2023-02-26T16:10:35;-1.50;99.90
35678;DHT22;21791;42.828;74.582;2023-02-26T16:13:05;-1.50;99.90
35678;DHT22;21791;42.828;74.582;2023-02-26T16:15:36;-1.30;99.90
35678;DHT22;21791;42.828;74.582;2023-02-26T16:18:12;-1.40;99.90
35678;DHT22;21791;42.828;74.582;2023-02-26T16:20:43;-1.30;99.90
35678;DHT22;21791;42.828;74.582;2023-02-26T16:23:19;-1.00;99.90
35678;DHT22;21791;42.828;74.582;2023-02-26T16:25:54;-1.10;99.90
35678;DHT22;21791;42.828;74.582;2023-02-26T16:28:25;-1.00;99.90
35678;DHT22;21791;42.828;74.582;2023-02-26T16:30:56;-0.90;99.90
35678;DHT22;21791;42.828;74.582;2023-02-26T16:33:24;-1.10;99.90
35678;DHT22;21791;42.828;74.582;2023-02-26T16:36:03;-1.10;99.90
35678;DHT22;21791;42.828;74.582;2023-02-26T16:38:46;-1.20;99.90
35678;DHT22;21791;42.828;74.582;2023-02-26T16:41:15;-1.10;99.90
35678;DHT22;21791;42.828;74.582;2023-02-26T16:46:18;-1.20;99.90
35678;DHT22;21791;42.828;74.582;2023-02-26T16:48:48;-1.20;99.90
35678;DHT22;21791;42.828;74.582;2023-02-26T16:51:19;-1.20;99.90
35678;DHT22;21791;42.828;74.582;2023-02-26T16:54:01;-1.20;99.90
35678;DHT22;21791;42.828;74.582;2023-02-26T16:56:39;-1.10;99.90
35678;DHT22;21791;42.828;74.582;2023-02-26T16:59:36;-1.30;99.90
35678;DHT22;21791;42.828;74.582;2023-02-26T17:02:37;-1.30;99.90
35678;DHT22;21791;42.828;74.582;2023-02-26T17:05:24;-1.40;99.90
35678;DHT22;21791;42.828;74.582;2023-02-26T17:07:54;-1.50;99.90
35678;DHT22;21791;42.828;74.582;2023-02-26T17:13:25;-1.50;99.90
35678;DHT22;21791;42.828;74.582;2023-02-26T17:15:52;-1.50;99.90
35678;DHT22;21791;42.828;74.582;2023-02-26T17:18:22;-1.50;99.90
35678;DHT22;21791;42.828;74.582;2023-02-26T17:20:49;-1.30;99.90
35678;DHT22;21791;42.828;74.582;2023-02-26T17:23:17;-1.40;99.90
35678;DHT22;21791;42.828;74.582;2023-02-26T17:25:50;-1.30;99.90
35678;DHT22;21791;42.828;74.582;2023-02-26T17:28:23;-1.60;99.90
35678;DHT22;21791;42.828;74.582;2023-02-26T17:30:51;-1.60;99.90
35678;DHT22;21791;42.828;74.582;2023-02-26T17:33:19;-1.50;99.90
35678;DHT22;21791;42.828;74.582;2023-02-26T17:35:47;-1.50;99.90
35678;DHT22;21791;42.828;74.582;2023-02-26T17:38:14;-1.50;99.90
35678;DHT22;21791;42.828;74.582;2023-02-26T17:40:44;-1.80;99.90
35678;DHT22;21791;42.828;74.582;2023-02-26T17:43:13;-1.70;99.90
35678;DHT22;21791;42.828;74.582;2023-02-26T17:45:40;-1.80;99.90
35678;DHT22;21791;42.828;74.582;2023-02-26T17:48:09;-1.90;99.90
35678;DHT22;21791;42.828;74.582;2023-02-26T17:50:50;-1.90;99.90
35678;DHT22;21791;42.828;74.582;2023-02-26T17:53:18;-1.80;99.90
35678;DHT22;21791;42.828;74.582;2023-02-26T17:55:46;-1.80;99.90
35678;DHT22;21791;42.828;74.582;2023-02-26T17:58:16;-2.00;99.90
35678;DHT22;21791;42.828;74.582;2023-02-26T18:00:43;-2.00;99.90
35678;DHT22;21791;42.828;74.582;2023-02-26T18:03:15;-2.00;99.90
35678;DHT22;21791;42.828;74.582;2023-02-26T18:05:41;-1.90;99.90
35678;DHT22;21791;42.828;74.582;2023-02-26T18:08:30;-2.00;99.90
35678;DHT22;21791;42.828;74.582;2023-02-26T18:10:59;-2.00;99.90
35678;DHT22;21791;42.828;74.582;2023-02-26T18:13:28;-1.80;99.90
35678;DHT22;21791;42.828;74.582;2023-02-26T18:15:56;-1.70;99.90
35678;DHT22;21791;42.828;74.582;2023-02-26T18:18:24;-1.70;99.90
35678;DHT22;21791;42.828;74.582;2023-02-26T18:20:52;-1.80;99.90
35678;DHT22;21791;42.828;74.582;2023-02-26T18:23:19;-2.10;99.90
35678;DHT22;21791;42.828;74.582;2023-02-26T18:25:48;-1.90;99.90
35678;DHT22;21791;42.828;74.582;2023-02-26T18:28:21;-2.10;99.90
35678;DHT22;21791;42.828;74.582;2023-02-26T18:30:48;-1.90;99.90
35678;DHT22;21791;42.828;74.582;2023-02-26T18:33:16;-2.20;99.90
35678;DHT22;21791;42.828;74.582;2023-02-26T18:35:45;-2.20;99.90
35678;DHT22;21791;42.828;74.582;2023-02-26T18:38:17;-2.00;99.90
35678;DHT22;21791;42.828;74.582;2023-02-26T18:40:44;-2.00;99.90